createdAt,value
2023-03-29T00:00:01.913Z,7.78
2023-03-29T00:01:02.090Z,7.82
2023-03-29T00:02:01.958Z,7.47
2023-03-29T00:03:01.957Z,7.25
2023-03-29T00:04:02.842Z,6.92
2023-03-29T00:05:02.014Z,6.76
2023-03-29T00:06:01.876Z,6.96
2023-03-29T00:07:01.869Z,7.27
2023-03-29T00:08:01.929Z,7.10
2023-03-29T00:09:01.951Z,7.25
2023-03-29T00:10:01.861Z,7.91
2023-03-29T00:11:01.937Z,8.91
2023-03-29T00:12:01.884Z,9.22
2023-03-29T00:13:01.825Z,8.45
2023-03-29T00:14:01.837Z,7.61
2023-03-29T00:15:01.811Z,7.58
2023-03-29T00:16:01.792Z,7.87
2023-03-29T00:17:01.822Z,7.33
2023-03-29T00:18:01.807Z,7.40
2023-03-29T00:19:01.765Z,7.47
2023-03-29T00:20:01.769Z,7.12
2023-03-29T00:21:02.068Z,6.75
2023-03-29T00:22:01.766Z,6.48
2023-03-29T00:23:01.737Z,6.20
2023-03-29T00:24:01.727Z,5.97
2023-03-29T00:25:01.743Z,6.32
2023-03-29T00:26:01.723Z,5.81
2023-03-29T00:27:01.735Z,5.39
2023-03-29T00:28:01.713Z,5.03
2023-03-29T00:29:01.709Z,4.67
2023-03-29T00:30:01.688Z,4.73
2023-03-29T00:31:01.919Z,4.56
2023-03-29T00:32:01.686Z,5.31
2023-03-29T00:33:01.702Z,5.18
2023-03-29T00:34:01.669Z,4.57
2023-03-29T00:35:01.682Z,4.08
2023-03-29T00:36:01.743Z,3.98
2023-03-29T00:37:01.737Z,3.97
2023-03-29T00:38:01.761Z,3.88
2023-03-29T00:39:01.821Z,3.64
2023-03-29T00:40:01.813Z,3.55
2023-03-29T00:41:01.991Z,3.79
2023-03-29T00:42:01.867Z,6.29
2023-03-29T00:43:01.851Z,9.63
2023-03-29T00:44:01.875Z,9.01
2023-03-29T00:45:01.880Z,7.21
2023-03-29T00:46:01.956Z,6.87
2023-03-29T00:47:01.949Z,7.01
2023-03-29T00:48:01.998Z,7.25
2023-03-29T00:49:01.983Z,7.06
2023-03-29T00:50:02.002Z,6.93
2023-03-29T00:51:02.284Z,6.77
2023-03-29T00:52:02.033Z,6.80
2023-03-29T00:53:02.044Z,6.37
2023-03-29T00:54:02.061Z,6.76
2023-03-29T00:55:02.132Z,6.64
2023-03-29T00:56:02.164Z,6.72
2023-03-29T00:57:02.341Z,7.22
2023-03-29T00:58:02.221Z,7.59
2023-03-29T00:59:02.256Z,8.06
2023-03-29T01:00:02.262Z,8.22
2023-03-29T01:01:02.594Z,7.93
2023-03-29T01:02:02.380Z,7.35
2023-03-29T01:03:02.432Z,6.60
2023-03-29T01:04:02.460Z,6.59
2023-03-29T01:05:02.361Z,8.21
2023-03-29T01:06:02.417Z,10.44
2023-03-29T01:07:02.463Z,13.85
2023-03-29T01:08:02.483Z,16.53
2023-03-29T01:09:02.528Z,13.61
2023-03-29T01:10:02.589Z,9.83
2023-03-29T01:11:02.872Z,8.18
2023-03-29T01:12:02.675Z,7.19
2023-03-29T01:13:02.713Z,6.79
2023-03-29T01:14:02.762Z,6.23
2023-03-29T01:15:02.800Z,6.30
2023-03-29T01:16:02.860Z,5.63
2023-03-29T01:17:02.882Z,5.70
2023-03-29T01:18:03.033Z,5.60
2023-03-29T01:19:02.990Z,5.60
2023-03-29T01:20:03.058Z,5.75
2023-03-29T01:21:03.270Z,6.19
2023-03-29T01:22:03.141Z,6.20
2023-03-29T01:23:03.158Z,6.62
2023-03-29T01:24:03.198Z,6.58
2023-03-29T01:25:03.194Z,6.83
2023-03-29T01:26:03.220Z,6.45
2023-03-29T01:27:03.260Z,6.59
2023-03-29T01:28:03.311Z,6.63
2023-03-29T01:29:03.299Z,6.87
2023-03-29T01:30:03.313Z,6.49
2023-03-29T01:31:03.536Z,6.14
2023-03-29T01:32:03.531Z,6.10
2023-03-29T01:33:03.505Z,5.72
2023-03-29T01:34:03.467Z,5.04
2023-03-29T01:35:03.495Z,4.93
2023-03-29T01:36:03.560Z,5.02
2023-03-29T01:37:03.568Z,4.93
2023-03-29T01:38:03.612Z,5.05
2023-03-29T01:39:03.666Z,4.92
2023-03-29T01:40:03.701Z,4.74
2023-03-29T01:41:03.993Z,4.90
2023-03-29T01:42:03.792Z,4.73
2023-03-29T01:43:03.840Z,4.48
2023-03-29T01:44:03.863Z,4.75
2023-03-29T01:45:03.938Z,4.72
2023-03-29T01:46:03.997Z,4.51
2023-03-29T01:47:04.026Z,4.87
2023-03-29T01:48:04.100Z,5.00
2023-03-29T01:49:04.092Z,5.33
2023-03-29T01:50:04.114Z,5.34
2023-03-29T01:51:04.460Z,5.39
2023-03-29T01:52:04.193Z,5.43
2023-03-29T01:53:04.208Z,5.47
2023-03-29T01:54:04.261Z,5.38
2023-03-29T01:55:04.272Z,5.18
2023-03-29T01:56:04.279Z,5.13
2023-03-29T01:57:04.368Z,4.95
2023-03-29T01:58:04.338Z,5.07
2023-03-29T01:59:04.420Z,5.08
2023-03-29T02:00:04.389Z,4.90
2023-03-29T02:01:04.664Z,4.99
2023-03-29T02:02:04.464Z,5.20
2023-03-29T02:03:04.528Z,5.57
2023-03-29T02:04:04.498Z,5.67
2023-03-29T02:05:04.558Z,5.34
2023-03-29T02:06:04.604Z,5.01
2023-03-29T02:07:04.661Z,5.13
2023-03-29T02:08:04.691Z,5.20
2023-03-29T02:09:04.710Z,4.71
2023-03-29T02:10:04.801Z,4.72
2023-03-29T02:11:04.947Z,4.57
2023-03-29T02:12:04.811Z,4.70
2023-03-29T02:13:04.844Z,4.79
2023-03-29T02:14:04.821Z,4.83
2023-03-29T02:15:04.893Z,4.86
2023-03-29T02:16:04.949Z,4.70
2023-03-29T02:17:04.955Z,4.91
2023-03-29T02:18:05.060Z,4.80
2023-03-29T02:19:05.069Z,4.90
2023-03-29T02:20:05.127Z,4.86
2023-03-29T02:21:05.145Z,4.91
2023-03-29T02:22:05.197Z,4.76
2023-03-29T02:23:05.243Z,4.75
2023-03-29T02:24:05.295Z,4.69
2023-03-29T02:25:05.355Z,4.66
2023-03-29T02:26:05.394Z,4.58
2023-03-29T02:27:05.433Z,4.48
2023-03-29T02:28:05.461Z,4.44
2023-03-29T02:29:05.520Z,4.36
2023-03-29T02:30:05.591Z,4.51
2023-03-29T02:31:05.755Z,4.62
2023-03-29T02:32:05.695Z,4.86
2023-03-29T02:33:05.852Z,4.98
2023-03-29T02:34:05.750Z,4.85
2023-03-29T02:35:05.909Z,4.72
2023-03-29T02:36:05.862Z,4.80
2023-03-29T02:37:05.903Z,5.22
2023-03-29T02:38:05.964Z,4.94
2023-03-29T02:39:06.006Z,5.11
2023-03-29T02:40:06.151Z,5.21
2023-03-29T02:41:06.091Z,5.38
2023-03-29T02:42:06.154Z,5.27
2023-03-29T02:43:06.213Z,5.56
2023-03-29T02:44:06.242Z,5.95
2023-03-29T02:45:06.270Z,6.06
2023-03-29T02:46:06.340Z,6.22
2023-03-29T02:47:06.339Z,6.41
2023-03-29T02:48:06.483Z,6.49
2023-03-29T02:49:06.407Z,6.49
2023-03-29T02:50:06.442Z,6.56
2023-03-29T02:51:06.456Z,6.62
2023-03-29T02:52:06.458Z,6.79
2023-03-29T02:53:06.508Z,6.87
2023-03-29T02:54:06.551Z,6.95
2023-03-29T02:55:06.569Z,6.76
2023-03-29T02:56:06.655Z,7.36
2023-03-29T02:57:06.723Z,8.11
2023-03-29T02:58:06.696Z,8.73
2023-03-29T02:59:06.728Z,10.14
2023-03-29T03:00:06.743Z,10.08
2023-03-29T03:01:06.803Z,8.67
2023-03-29T03:02:06.890Z,8.10
2023-03-29T03:03:06.974Z,7.86
2023-03-29T03:04:06.988Z,8.76
2023-03-29T03:05:06.988Z,9.24
2023-03-29T03:06:07.002Z,9.06
2023-03-29T03:07:07.003Z,9.02
2023-03-29T03:08:07.058Z,9.09
2023-03-29T03:09:07.072Z,8.85
2023-03-29T03:10:07.137Z,9.03
2023-03-29T03:11:07.201Z,8.63
2023-03-29T03:12:07.222Z,9.03
2023-03-29T03:13:07.311Z,8.90
2023-03-29T03:14:07.347Z,8.62
2023-03-29T03:15:07.396Z,8.87
2023-03-29T03:16:07.474Z,8.70
2023-03-29T03:17:07.478Z,9.15
2023-03-29T03:18:07.619Z,9.30
2023-03-29T03:19:07.577Z,8.92
2023-03-29T03:20:07.625Z,8.68
2023-03-29T03:21:07.666Z,9.07
2023-03-29T03:22:07.807Z,8.47
2023-03-29T03:23:07.749Z,8.54
2023-03-29T03:24:07.800Z,8.17
2023-03-29T03:25:07.837Z,8.04
2023-03-29T03:26:07.862Z,7.84
2023-03-29T03:27:07.898Z,8.14
2023-03-29T03:28:07.879Z,8.54
2023-03-29T03:29:07.925Z,8.69
2023-03-29T03:30:08.006Z,8.56
2023-03-29T03:31:08.021Z,8.42
2023-03-29T03:32:08.073Z,8.90
2023-03-29T03:33:08.013Z,9.24
2023-03-29T03:34:08.068Z,9.20
2023-03-29T03:35:08.120Z,8.69
2023-03-29T03:36:08.228Z,9.20
2023-03-29T03:37:08.230Z,9.04
2023-03-29T03:38:08.259Z,9.02
2023-03-29T03:39:08.291Z,8.38
2023-03-29T03:40:08.297Z,8.67
2023-03-29T03:41:08.308Z,9.08
2023-03-29T03:42:08.635Z,8.45
2023-03-29T03:43:08.348Z,8.86
2023-03-29T03:44:08.357Z,8.08
2023-03-29T03:45:08.392Z,8.04
2023-03-29T03:46:08.452Z,7.89
2023-03-29T03:47:08.427Z,7.53
2023-03-29T03:48:08.477Z,7.93
2023-03-29T03:49:08.477Z,10.20
2023-03-29T03:50:08.522Z,10.94
2023-03-29T03:51:08.577Z,11.54
2023-03-29T03:52:08.601Z,9.55
2023-03-29T03:53:08.724Z,7.90
2023-03-29T03:54:08.721Z,7.64
2023-03-29T03:55:08.746Z,6.96
2023-03-29T03:56:08.823Z,7.21
2023-03-29T03:57:08.922Z,7.23
2023-03-29T03:58:08.893Z,7.95
2023-03-29T03:59:08.941Z,8.61
2023-03-29T04:00:08.991Z,8.88
2023-03-29T04:01:09.007Z,7.90
2023-03-29T04:02:09.073Z,7.41
2023-03-29T04:03:09.228Z,6.68
2023-03-29T04:04:09.152Z,6.30
2023-03-29T04:05:09.124Z,6.36
2023-03-29T04:06:09.115Z,6.71
2023-03-29T04:07:09.171Z,7.17
2023-03-29T04:08:09.206Z,7.35
2023-03-29T04:09:09.307Z,7.35
2023-03-29T04:10:09.317Z,7.03
2023-03-29T04:11:09.354Z,7.16
2023-03-29T04:12:09.374Z,7.64
2023-03-29T04:13:09.417Z,7.39
2023-03-29T04:14:09.488Z,6.84
2023-03-29T04:15:09.512Z,7.05
2023-03-29T04:16:09.578Z,7.74
2023-03-29T04:17:09.583Z,8.24
2023-03-29T04:18:09.705Z,8.08
2023-03-29T04:19:09.670Z,7.27
2023-03-29T04:20:09.695Z,7.55
2023-03-29T04:21:09.737Z,9.77
2023-03-29T04:22:09.789Z,10.42
2023-03-29T04:23:09.850Z,11.72
2023-03-29T04:24:09.888Z,10.67
2023-03-29T04:25:09.953Z,8.94
2023-03-29T04:26:09.985Z,7.38
2023-03-29T04:27:10.042Z,6.93
2023-03-29T04:28:10.089Z,6.86
2023-03-29T04:29:10.137Z,6.21
2023-03-29T04:30:10.201Z,6.82
2023-03-29T04:31:10.272Z,7.19
2023-03-29T04:32:10.264Z,6.97
2023-03-29T04:33:10.398Z,7.03
2023-03-29T04:34:10.354Z,6.89
2023-03-29T04:35:10.402Z,6.45
2023-03-29T04:36:10.427Z,6.50
2023-03-29T04:37:10.470Z,6.48
2023-03-29T04:38:10.429Z,6.46
2023-03-29T04:39:10.454Z,6.62
2023-03-29T04:40:10.480Z,6.64
2023-03-29T04:41:10.526Z,7.25
2023-03-29T04:42:10.582Z,7.79
2023-03-29T04:43:10.624Z,7.64
2023-03-29T04:44:10.692Z,7.82
2023-03-29T04:45:10.773Z,7.93
2023-03-29T04:46:10.798Z,7.66
2023-03-29T04:47:10.819Z,7.57
2023-03-29T04:48:10.898Z,7.51
2023-03-29T04:49:10.882Z,7.90
2023-03-29T04:50:10.968Z,9.09
2023-03-29T04:51:10.911Z,9.20
2023-03-29T04:52:10.951Z,8.34
2023-03-29T04:53:11.008Z,8.02
2023-03-29T04:54:11.065Z,8.13
2023-03-29T04:55:11.076Z,9.60
2023-03-29T04:56:11.124Z,11.13
2023-03-29T04:57:11.204Z,14.41
2023-03-29T04:58:11.196Z,14.60
2023-03-29T04:59:11.240Z,11.97
2023-03-29T05:00:11.258Z,9.98
2023-03-29T05:01:11.332Z,8.51
2023-03-29T05:02:11.403Z,7.76
2023-03-29T05:03:11.551Z,7.71
2023-03-29T05:04:12.750Z,7.39
2023-03-29T05:05:11.525Z,7.89
2023-03-29T05:06:11.563Z,7.34
2023-03-29T05:07:11.624Z,7.89
2023-03-29T05:08:11.679Z,8.39
2023-03-29T05:09:11.732Z,8.99
2023-03-29T05:10:11.759Z,9.04
2023-03-29T05:11:11.835Z,9.24
2023-03-29T05:12:11.859Z,9.16
2023-03-29T05:13:11.929Z,9.16
2023-03-29T05:14:11.969Z,8.75
2023-03-29T05:15:12.011Z,8.95
2023-03-29T05:16:12.112Z,8.95
2023-03-29T05:17:12.117Z,9.23
2023-03-29T05:18:12.196Z,11.44
2023-03-29T05:19:12.224Z,13.23
2023-03-29T05:20:12.273Z,12.28
2023-03-29T05:21:12.326Z,11.49
2023-03-29T05:22:12.381Z,11.10
2023-03-29T05:23:12.428Z,11.05
2023-03-29T05:24:12.438Z,10.86
2023-03-29T05:25:12.492Z,9.96
2023-03-29T05:26:12.473Z,12.39
2023-03-29T05:27:12.484Z,16.19
2023-03-29T05:28:12.540Z,20.04
2023-03-29T05:29:12.582Z,22.35
2023-03-29T05:30:12.895Z,22.90
2023-03-29T05:31:15.411Z,23.56
2023-03-29T05:32:12.660Z,23.68
2023-03-29T05:33:12.666Z,24.47
2023-03-29T05:34:12.623Z,26.43
2023-03-29T05:35:12.602Z,29.15
2023-03-29T05:36:12.636Z,35.79
2023-03-29T05:37:12.593Z,39.90
2023-03-29T05:38:12.572Z,42.69
2023-03-29T05:39:12.599Z,43.40
2023-03-29T05:40:12.898Z,48.11
2023-03-29T05:41:12.551Z,49.66
2023-03-29T05:42:12.544Z,50.48
2023-03-29T05:43:12.563Z,56.39
2023-03-29T05:44:12.538Z,66.92
2023-03-29T05:45:12.518Z,67.21
2023-03-29T05:46:12.609Z,65.95
2023-03-29T05:47:12.526Z,66.67
2023-03-29T05:48:12.521Z,69.91
2023-03-29T05:49:12.499Z,70.82
2023-03-29T05:50:12.515Z,67.80
2023-03-29T05:51:12.491Z,58.71
2023-03-29T05:52:12.481Z,60.20
2023-03-29T05:53:12.461Z,54.09
2023-03-29T05:54:12.462Z,49.28
2023-03-29T05:55:12.487Z,38.60
2023-03-29T05:56:12.453Z,42.94
2023-03-29T05:57:12.481Z,35.68
2023-03-29T05:58:12.453Z,36.11
2023-03-29T05:59:12.421Z,39.81
2023-03-29T06:00:12.420Z,41.90
2023-03-29T06:01:12.431Z,41.23
2023-03-29T06:02:12.529Z,41.97
2023-03-29T06:03:19.909Z,38.83
2023-03-29T06:04:13.452Z,38.88
2023-03-29T06:05:12.393Z,33.14
2023-03-29T06:06:12.390Z,31.64
2023-03-29T06:07:12.393Z,29.96
2023-03-29T06:08:12.375Z,26.65
2023-03-29T06:09:12.372Z,29.11
2023-03-29T06:10:12.354Z,25.13
2023-03-29T06:11:12.359Z,23.21
2023-03-29T06:12:12.350Z,27.35
2023-03-29T06:13:12.332Z,28.98
2023-03-29T06:14:12.328Z,32.79
2023-03-29T06:15:12.328Z,32.98
2023-03-29T06:16:12.312Z,30.15
2023-03-29T06:17:12.373Z,35.84
2023-03-29T06:18:12.393Z,26.24
2023-03-29T06:19:12.422Z,27.57
2023-03-29T06:20:12.440Z,26.02
2023-03-29T06:21:12.639Z,29.84
2023-03-29T06:22:14.835Z,29.61
2023-03-29T06:23:12.600Z,28.43
2023-03-29T06:24:12.654Z,34.85
2023-03-29T06:25:12.698Z,34.67
2023-03-29T06:26:12.728Z,31.07
2023-03-29T06:27:12.745Z,30.99
2023-03-29T06:28:12.832Z,27.22
2023-03-29T06:29:12.847Z,23.99
2023-03-29T06:30:12.865Z,24.09
2023-03-29T06:31:13.002Z,24.38
2023-03-29T06:32:13.402Z,22.10
2023-03-29T06:33:13.001Z,21.12
2023-03-29T06:34:13.029Z,25.11
2023-03-29T06:35:13.019Z,26.57
2023-03-29T06:36:13.062Z,30.34
2023-03-29T06:37:13.083Z,33.10
2023-03-29T06:38:13.166Z,40.13
2023-03-29T06:39:13.184Z,45.50
2023-03-29T06:40:13.237Z,53.87
2023-03-29T06:41:13.444Z,56.85
2023-03-29T06:42:21.121Z,49.09
2023-03-29T06:43:14.318Z,47.48
2023-03-29T06:44:13.503Z,49.99
2023-03-29T06:45:13.278Z,52.91
2023-03-29T06:46:13.471Z,59.49
2023-03-29T06:47:13.409Z,69.23
2023-03-29T06:48:13.286Z,71.56
2023-03-29T06:49:13.251Z,67.81
2023-03-29T06:50:13.247Z,61.93
2023-03-29T06:51:13.221Z,60.51
2023-03-29T06:52:13.422Z,64.42
2023-03-29T06:53:13.259Z,66.47
2023-03-29T06:54:13.261Z,67.68
2023-03-29T06:55:13.271Z,67.40
2023-03-29T06:56:13.312Z,67.92
2023-03-29T06:57:13.497Z,68.71
2023-03-29T06:58:13.407Z,65.12
2023-03-29T06:59:13.423Z,59.48
2023-03-29T07:00:13.437Z,56.17
2023-03-29T07:01:13.446Z,54.22
2023-03-29T07:02:13.592Z,53.17
2023-03-29T07:03:13.551Z,56.08
2023-03-29T07:04:13.637Z,52.82
2023-03-29T07:05:13.567Z,49.50
2023-03-29T07:06:13.614Z,51.94
2023-03-29T07:07:14.179Z,52.05
2023-03-29T07:08:13.957Z,55.19
2023-03-29T07:09:13.766Z,56.36
2023-03-29T07:10:13.785Z,57.58
2023-03-29T07:11:13.812Z,58.25
2023-03-29T07:12:14.045Z,52.18
2023-03-29T07:13:13.905Z,51.63
2023-03-29T07:14:13.876Z,53.79
2023-03-29T07:15:13.888Z,49.52
2023-03-29T07:16:13.998Z,45.08
2023-03-29T07:17:13.921Z,46.53
2023-03-29T07:18:13.978Z,46.63
2023-03-29T07:19:14.030Z,46.24
2023-03-29T07:20:14.072Z,48.09
2023-03-29T07:21:14.116Z,45.94
2023-03-29T07:22:14.153Z,45.69
2023-03-29T07:23:14.162Z,45.39
2023-03-29T07:24:14.185Z,46.58
2023-03-29T07:25:14.231Z,45.95
2023-03-29T07:26:14.237Z,39.73
2023-03-29T07:27:15.445Z,39.82
2023-03-29T07:28:14.453Z,39.92
2023-03-29T07:29:14.247Z,39.91
2023-03-29T07:30:14.200Z,43.29
2023-03-29T07:31:14.196Z,44.58
2023-03-29T07:32:14.197Z,40.58
2023-03-29T07:33:14.627Z,38.34
2023-03-29T07:34:14.170Z,31.22
2023-03-29T07:35:14.180Z,23.31
2023-03-29T07:36:14.242Z,17.41
2023-03-29T07:37:14.440Z,14.74
2023-03-29T07:38:14.152Z,12.83
2023-03-29T07:39:14.184Z,12.05
2023-03-29T07:40:14.198Z,15.89
2023-03-29T07:41:14.212Z,26.65
2023-03-29T07:42:14.237Z,26.30
2023-03-29T07:43:14.255Z,17.66
2023-03-29T07:44:14.289Z,20.09
2023-03-29T07:45:14.298Z,19.88
2023-03-29T07:46:14.442Z,18.15
2023-03-29T07:47:14.361Z,18.23
2023-03-29T07:48:14.418Z,22.51
2023-03-29T07:49:14.434Z,20.60
2023-03-29T07:50:14.436Z,17.92
2023-03-29T07:51:14.426Z,17.46
2023-03-29T07:52:14.457Z,18.05
2023-03-29T07:53:14.468Z,17.53
2023-03-29T07:54:14.519Z,18.15
2023-03-29T07:55:14.928Z,19.25
2023-03-29T07:56:14.612Z,19.87
2023-03-29T07:57:14.706Z,18.32
2023-03-29T07:58:14.658Z,16.43
2023-03-29T07:59:14.690Z,18.52
2023-03-29T08:00:15.026Z,23.47
2023-03-29T08:01:17.107Z,22.01
2023-03-29T08:02:14.752Z,17.32
2023-03-29T08:03:14.875Z,12.98
2023-03-29T08:04:14.828Z,10.38
2023-03-29T08:05:17.547Z,9.61
2023-03-29T08:06:15.736Z,10.43
2023-03-29T08:07:16.446Z,9.85
2023-03-29T08:08:14.731Z,8.37
2023-03-29T08:09:14.695Z,7.70
2023-03-29T08:10:14.703Z,7.14
2023-03-29T08:11:14.704Z,5.68
2023-03-29T08:12:14.713Z,4.69
2023-03-29T08:13:14.679Z,3.89
2023-03-29T08:14:14.688Z,3.58
2023-03-29T08:15:14.957Z,3.46
2023-03-29T08:16:14.737Z,4.08
2023-03-29T08:17:14.663Z,3.99
2023-03-29T08:18:14.717Z,3.97
2023-03-29T08:19:14.659Z,4.53
2023-03-29T08:20:14.945Z,5.37
2023-03-29T08:21:14.641Z,7.60
2023-03-29T08:22:14.641Z,9.36
2023-03-29T08:23:14.646Z,13.57
2023-03-29T08:24:14.614Z,21.72
2023-03-29T08:25:14.962Z,25.92
2023-03-29T08:26:14.599Z,27.53
2023-03-29T08:27:14.590Z,28.81
2023-03-29T08:28:14.941Z,30.00
2023-03-29T08:29:14.588Z,24.60
2023-03-29T08:30:14.907Z,26.99
2023-03-29T08:31:14.616Z,20.88
2023-03-29T08:32:14.603Z,18.76
2023-03-29T08:33:14.623Z,24.13
2023-03-29T08:34:14.557Z,28.86
2023-03-29T08:35:14.559Z,26.92
2023-03-29T08:36:14.580Z,24.98
2023-03-29T08:37:14.519Z,25.19
2023-03-29T08:38:15.022Z,24.51
2023-03-29T08:39:14.522Z,23.94
2023-03-29T08:40:14.501Z,16.91
2023-03-29T08:41:14.525Z,18.47
2023-03-29T08:42:14.520Z,18.45
2023-03-29T08:43:14.949Z,14.64
2023-03-29T08:44:14.476Z,12.76
2023-03-29T08:45:14.466Z,12.40
2023-03-29T08:46:14.489Z,12.36
2023-03-29T08:47:14.460Z,13.31
2023-03-29T08:48:14.430Z,15.37
2023-03-29T08:49:14.448Z,18.47
2023-03-29T08:50:14.449Z,20.12
2023-03-29T08:51:14.431Z,19.85
2023-03-29T08:52:14.434Z,17.20
2023-03-29T08:53:14.419Z,16.99
2023-03-29T08:54:14.433Z,15.60
2023-03-29T08:55:14.454Z,15.96
2023-03-29T08:56:14.531Z,15.85
2023-03-29T08:57:14.586Z,16.49
2023-03-29T08:58:14.597Z,16.77
2023-03-29T08:59:14.649Z,16.10
2023-03-29T09:00:14.650Z,16.17
2023-03-29T09:01:14.696Z,13.94
2023-03-29T09:02:14.896Z,13.46
2023-03-29T09:03:14.874Z,13.67
2023-03-29T09:04:14.817Z,14.18
2023-03-29T09:05:14.835Z,13.40
2023-03-29T09:06:14.884Z,13.81
2023-03-29T09:07:14.919Z,13.58
2023-03-29T09:08:14.965Z,13.41
2023-03-29T09:09:14.978Z,12.72
2023-03-29T09:10:15.001Z,13.07
2023-03-29T09:11:15.000Z,14.53
2023-03-29T09:12:15.048Z,13.77
2023-03-29T09:13:15.171Z,12.74
2023-03-29T09:14:15.156Z,11.83
2023-03-29T09:15:15.183Z,9.37
2023-03-29T09:16:15.288Z,11.27
2023-03-29T09:17:15.272Z,12.58
2023-03-29T09:18:15.515Z,12.16
2023-03-29T09:19:15.376Z,11.13
2023-03-29T09:20:15.422Z,11.30
2023-03-29T09:21:15.449Z,11.55
2023-03-29T09:22:15.488Z,11.25
2023-03-29T09:23:15.988Z,12.11
2023-03-29T09:24:15.589Z,12.63
2023-03-29T09:25:15.541Z,12.26
2023-03-29T09:26:15.602Z,14.68
2023-03-29T09:27:15.627Z,16.29
2023-03-29T09:28:15.989Z,15.40
2023-03-29T09:29:15.698Z,11.22
2023-03-29T09:30:15.804Z,9.66
2023-03-29T09:31:15.820Z,10.56
2023-03-29T09:32:15.849Z,12.31
2023-03-29T09:33:16.005Z,13.13
2023-03-29T09:34:16.104Z,14.10
2023-03-29T09:35:15.956Z,13.34
2023-03-29T09:36:16.056Z,16.34
2023-03-29T09:37:16.018Z,18.12
2023-03-29T09:38:16.037Z,20.05
2023-03-29T09:39:16.079Z,22.00
2023-03-29T09:40:16.067Z,26.36
2023-03-29T09:41:16.097Z,30.88
2023-03-29T09:42:16.121Z,33.59
2023-03-29T09:43:16.187Z,34.42
2023-03-29T09:44:29.817Z,34.52
2023-03-29T09:45:17.180Z,34.57
2023-03-29T09:46:16.383Z,34.74
2023-03-29T09:47:16.176Z,34.85
2023-03-29T09:48:16.483Z,36.80
2023-03-29T09:49:17.418Z,32.01
2023-03-29T09:50:27.739Z,38.79
2023-03-29T09:51:17.142Z,38.94
2023-03-29T09:52:16.136Z,39.75
2023-03-29T09:53:16.148Z,37.87
2023-03-29T09:54:16.162Z,43.74
2023-03-29T09:55:16.135Z,48.59
2023-03-29T09:56:16.097Z,54.38
2023-03-29T09:57:16.180Z,61.87
2023-03-29T09:58:16.125Z,62.68
2023-03-29T09:59:16.481Z,59.32
2023-03-29T10:00:16.122Z,61.18
2023-03-29T10:01:16.109Z,59.49
2023-03-29T10:02:16.066Z,54.86
2023-03-29T10:03:16.053Z,55.15
2023-03-29T10:04:16.553Z,53.54
2023-03-29T10:05:16.115Z,54.09
2023-03-29T10:06:16.189Z,43.15
2023-03-29T10:07:16.223Z,15.42
2023-03-29T10:08:19.027Z,17.57
2023-03-29T10:09:16.501Z,17.07
2023-03-29T10:10:16.276Z,13.27
2023-03-29T10:11:16.205Z,12.63
2023-03-29T10:12:16.203Z,11.45
2023-03-29T10:13:16.201Z,7.90
2023-03-29T10:14:16.204Z,6.61
2023-03-29T10:15:26.712Z,6.12
2023-03-29T10:16:17.256Z,6.18
2023-03-29T10:17:16.174Z,6.55
2023-03-29T10:18:16.165Z,7.33
2023-03-29T10:19:16.489Z,8.66
2023-03-29T10:20:16.165Z,10.85
2023-03-29T10:21:16.143Z,10.62
2023-03-29T10:22:16.120Z,8.62
2023-03-29T10:23:16.157Z,5.40
2023-03-29T10:24:16.143Z,4.59
2023-03-29T10:25:16.119Z,3.17
2023-03-29T10:26:16.118Z,3.07
2023-03-29T10:27:16.087Z,2.59
2023-03-29T10:28:16.134Z,3.18
2023-03-29T10:29:16.106Z,2.90
2023-03-29T10:30:16.127Z,1.73
2023-03-29T10:31:17.861Z,1.64
2023-03-29T10:32:16.163Z,1.65
2023-03-29T10:33:16.168Z,1.74
2023-03-29T10:34:16.174Z,1.26
2023-03-29T10:35:16.210Z,1.27
2023-03-29T10:36:16.297Z,1.47
2023-03-29T10:37:16.275Z,1.37
2023-03-29T10:38:16.305Z,1.19
2023-03-29T10:39:16.352Z,1.04
2023-03-29T10:40:16.522Z,0.99
2023-03-29T10:41:16.436Z,0.82
2023-03-29T10:42:16.451Z,0.85
2023-03-29T10:43:16.469Z,0.85
2023-03-29T10:44:16.502Z,0.80
2023-03-29T10:45:16.552Z,0.87
2023-03-29T10:46:16.728Z,0.77
2023-03-29T10:47:16.649Z,0.81
2023-03-29T10:48:16.653Z,1.09
2023-03-29T10:49:16.708Z,1.30
2023-03-29T10:50:16.743Z,1.21
2023-03-29T10:51:16.747Z,1.42
2023-03-29T10:52:16.781Z,1.28
2023-03-29T10:53:16.832Z,0.98
2023-03-29T10:54:16.847Z,0.88
2023-03-29T10:55:16.927Z,0.76
2023-03-29T10:56:16.909Z,0.69
2023-03-29T10:57:16.994Z,0.66
2023-03-29T10:58:17.025Z,0.69
2023-03-29T10:59:17.020Z,0.71
2023-03-29T11:00:17.526Z,0.74
2023-03-29T11:01:18.054Z,0.82
2023-03-29T11:02:17.107Z,0.86
2023-03-29T11:03:19.515Z,1.09
2023-03-29T11:04:17.075Z,1.07
2023-03-29T11:05:17.057Z,1.00
2023-03-29T11:06:17.028Z,1.13
2023-03-29T11:07:17.026Z,1.25
2023-03-29T11:08:17.024Z,1.67
2023-03-29T11:09:17.026Z,2.06
2023-03-29T11:10:17.013Z,2.50
2023-03-29T11:11:17.024Z,2.69
2023-03-29T11:12:17.014Z,2.68
2023-03-29T11:13:16.989Z,2.19
2023-03-29T11:14:16.961Z,1.74
2023-03-29T11:15:17.027Z,1.55
2023-03-29T11:16:17.029Z,1.42
2023-03-29T11:17:16.984Z,1.32
2023-03-29T11:18:16.944Z,1.36
2023-03-29T11:19:16.946Z,1.51
2023-03-29T11:20:16.968Z,2.67
2023-03-29T11:21:16.913Z,5.32
2023-03-29T11:22:16.896Z,7.34
2023-03-29T11:23:16.902Z,8.75
2023-03-29T11:24:16.904Z,15.38
2023-03-29T11:25:16.900Z,18.44
2023-03-29T11:26:16.894Z,14.26
2023-03-29T11:27:16.873Z,10.20
2023-03-29T11:28:16.877Z,9.04
2023-03-29T11:29:16.878Z,10.10
2023-03-29T11:30:16.866Z,9.02
2023-03-29T11:31:16.878Z,7.75
2023-03-29T11:32:16.830Z,6.67
2023-03-29T11:33:16.856Z,6.20
2023-03-29T11:34:16.845Z,6.18
2023-03-29T11:35:16.815Z,6.14
2023-03-29T11:36:16.873Z,6.60
2023-03-29T11:37:16.812Z,7.01
2023-03-29T11:38:16.780Z,7.46
2023-03-29T11:39:16.798Z,7.50
2023-03-29T11:40:16.789Z,7.87
2023-03-29T11:41:16.778Z,7.43
2023-03-29T11:42:16.828Z,6.94
2023-03-29T11:43:16.836Z,6.72
2023-03-29T11:44:16.919Z,6.70
2023-03-29T11:45:16.927Z,6.43
2023-03-29T11:46:16.984Z,6.53
2023-03-29T11:47:16.987Z,6.17
2023-03-29T11:48:17.015Z,6.03
2023-03-29T11:49:17.065Z,5.80
2023-03-29T11:50:17.116Z,6.44
2023-03-29T11:51:17.135Z,5.46
2023-03-29T11:52:17.171Z,5.51
2023-03-29T11:53:17.205Z,5.10
2023-03-29T11:54:17.217Z,4.96
2023-03-29T11:55:17.244Z,5.03
2023-03-29T11:56:17.552Z,5.33
2023-03-29T11:57:17.626Z,5.51
2023-03-29T11:58:17.389Z,5.33
2023-03-29T11:59:17.436Z,5.15
2023-03-29T12:00:17.485Z,4.92
2023-03-29T12:01:17.554Z,5.16
2023-03-29T12:02:18.079Z,5.13
2023-03-29T12:03:18.103Z,5.34
2023-03-29T12:04:17.726Z,4.97
2023-03-29T12:05:17.658Z,4.79
2023-03-29T12:06:17.681Z,4.68
2023-03-29T12:07:17.748Z,4.37
2023-03-29T12:08:18.050Z,4.79
2023-03-29T12:09:17.839Z,4.99
2023-03-29T12:10:17.859Z,5.18
2023-03-29T12:11:17.875Z,4.78
2023-03-29T12:12:17.993Z,5.06
2023-03-29T12:13:18.045Z,4.86
2023-03-29T12:14:17.924Z,5.05
2023-03-29T12:15:17.977Z,4.63
2023-03-29T12:16:18.033Z,4.73
2023-03-29T12:17:18.074Z,4.99
2023-03-29T12:18:18.119Z,4.98
2023-03-29T12:19:18.154Z,5.11
2023-03-29T12:20:18.186Z,4.98
2023-03-29T12:21:18.224Z,5.15
2023-03-29T12:22:18.246Z,4.97
2023-03-29T12:23:18.240Z,5.25
2023-03-29T12:24:18.279Z,4.81
2023-03-29T12:25:20.212Z,4.58
2023-03-29T12:26:18.255Z,4.38
2023-03-29T12:27:18.272Z,4.27
2023-03-29T12:28:18.253Z,4.23
2023-03-29T12:29:18.232Z,4.14
2023-03-29T12:30:18.279Z,4.53
2023-03-29T12:31:18.225Z,4.49
2023-03-29T12:32:18.238Z,4.58
2023-03-29T12:33:18.277Z,4.42
2023-03-29T12:34:18.208Z,4.46
2023-03-29T12:35:18.239Z,4.26
2023-03-29T12:36:18.247Z,4.31
2023-03-29T12:37:18.188Z,4.17
2023-03-29T12:38:18.168Z,4.21
2023-03-29T12:39:18.177Z,4.34
2023-03-29T12:40:18.172Z,4.59
2023-03-29T12:41:18.183Z,4.50
2023-03-29T12:42:18.146Z,4.52
2023-03-29T12:43:18.149Z,4.62
2023-03-29T12:44:18.125Z,4.27
2023-03-29T12:45:18.136Z,4.06
2023-03-29T12:46:18.182Z,4.15
2023-03-29T12:47:18.137Z,3.72
2023-03-29T12:48:18.126Z,3.75
2023-03-29T12:49:20.544Z,3.44
2023-03-29T12:50:18.076Z,3.45
2023-03-29T12:51:18.084Z,3.47
2023-03-29T12:52:18.074Z,3.58
2023-03-29T12:53:18.061Z,3.80
2023-03-29T12:54:18.065Z,4.24
2023-03-29T12:55:18.063Z,3.66
2023-03-29T12:56:18.039Z,3.47
2023-03-29T12:57:18.061Z,3.43
2023-03-29T12:58:18.031Z,3.13
2023-03-29T12:59:18.021Z,3.23
2023-03-29T13:00:18.013Z,3.39
2023-03-29T13:01:18.089Z,3.27
2023-03-29T13:02:18.114Z,3.37
2023-03-29T13:03:17.991Z,3.76
2023-03-29T13:04:17.977Z,3.29
2023-03-29T13:05:18.031Z,3.33
2023-03-29T13:06:17.969Z,3.27
2023-03-29T13:07:17.960Z,3.22
2023-03-29T13:08:17.943Z,2.91